Time;durP1;ratioP1;P1;durP2;ratioP2;P2;SDS_P1;SDS_P2;PMS_P1;PMS_P2;Temp;Humidity;BMP_temperature;BMP_pressure;BME280_temperature;BME280_humidity;BME280_pressure;Samples;Min_cycle;Max_cycle;Signal;HPM_P1;HPM_P2
2022/01/24 00:01:32;;;;;;;;;;;5.50;99.90;;;;;;5025897;28;19957;-79
2022/01/24 00:03:58;;;;;;;;;;;5.60;99.90;;;;;;5012923;28;19960;-79
2022/01/24 00:06:24;;;;;;;;;;;5.60;99.90;;;;;;5015367;28;20109;-79
2022/01/24 00:08:50;;;;;;;;;;;5.50;99.90;;;;;;5015592;28;20007;-80
2022/01/24 00:11:20;;;;;;;;;;;5.50;99.90;;;;;;5022482;28;19971;-79
2022/01/24 00:26:48;;;;;;;;;;;5.40;99.90;;;;;;5027640;28;19929;-80
2022/01/24 00:29:15;;;;;;;;;;;5.40;99.90;;;;;;5024289;28;20370;-79
2022/01/24 00:31:40;;;;;;;;;;;5.40;99.90;;;;;;5025233;28;19925;-80
2022/01/24 00:34:05;;;;;;;;;;;5.40;99.90;;;;;;5025391;28;19913;-80
2022/01/24 00:36:31;;;;;;;;;;;5.30;99.90;;;;;;5033994;28;19920;-79
2022/01/24 00:38:56;;;;;;;;;;;5.30;99.90;;;;;;5017905;28;20362;-80
2022/01/24 00:41:23;;;;;;;;;;;5.30;99.90;;;;;;5017786;28;19913;-79
2022/01/24 00:44:27;;;;;;;;;;;5.20;1.00;;;;;;5030930;28;20301;-79
2022/01/24 00:46:53;;;;;;;;;;;5.20;1.00;;;;;;5013928;28;19937;-80
2022/01/24 00:49:37;;;;;;;;;;;5.10;1.00;;;;;;5016726;28;19936;-79
2022/01/24 00:54:52;;;;;;;;;;;5.00;1.00;;;;;;5019729;28;19963;-79
2022/01/24 00:57:19;;;;;;;;;;;5.00;1.00;;;;;;5017271;28;19944;-79
2022/01/24 00:59:44;;;;;;;;;;;4.90;1.00;;;;;;5015574;28;19952;-80
2022/01/24 01:02:10;;;;;;;;;;;4.90;1.00;;;;;;5025576;28;19925;-79
2022/01/24 01:07:25;;;;;;;;;;;4.80;1.00;;;;;;5017766;28;19937;-79
2022/01/24 01:18:21;;;;;;;;;;;4.60;1.00;;;;;;5018377;28;19920;-80
2022/01/24 01:23:33;;;;;;;;;;;4.50;1.00;;;;;;5006547;28;19920;-79
2022/01/24 01:26:02;;;;;;;;;;;4.40;1.00;;;;;;5018320;28;20405;-79
2022/01/24 01:28:29;;;;;;;;;;;4.40;1.00;;;;;;5016612;28;19960;-79
2022/01/24 01:30:59;;;;;;;;;;;4.40;1.00;;;;;;5016540;28;19920;-79
2022/01/24 01:33:52;;;;;;;;;;;4.30;15.20;;;;;;5016307;28;19914;-79
2022/01/24 01:37:00;;;;;;;;;;;4.30;42.30;;;;;;5014092;28;20000;-80
2022/01/24 01:40:03;;;;;;;;;;;4.20;77.90;;;;;;5019679;28;20336;-79
2022/01/24 01:56:04;;;;;;;;;;;4.00;1.00;;;;;;5017119;28;19918;-79
2022/01/24 01:58:29;;;;;;;;;;;3.90;1.00;;;;;;5014098;28;19918;-79
2022/01/24 02:00:56;;;;;;;;;;;3.90;66.50;;;;;;5019690;28;20378;-79
2022/01/24 02:03:22;;;;;;;;;;;3.80;99.90;;;;;;5015336;28;20393;-79
2022/01/24 02:05:47;;;;;;;;;;;3.80;99.90;;;;;;5015498;28;19957;-79
2022/01/24 02:08:13;;;;;;;;;;;3.70;40.30;;;;;;5016736;28;19910;-79
2022/01/24 02:10:41;;;;;;;;;;;3.70;99.90;;;;;;5025093;28;19928;-79
2022/01/24 02:13:07;;;;;;;;;;;3.70;99.90;;;;;;5013402;28;19914;-78
2022/01/24 02:18:15;;;;;;;;;;;3.60;99.90;;;;;;5020804;28;19969;-79
2022/01/24 02:21:07;;;;;;;;;;;3.60;1.00;;;;;;5029848;28;19928;-79
2022/01/24 02:25:57;;;;;;;;;;;3.50;1.00;;;;;;5016634;28;19933;-79
2022/01/24 02:28:25;;;;;;;;;;;3.50;1.00;;;;;;5022543;28;20274;-78
2022/01/24 02:33:18;;;;;;;;;;;3.50;50.40;;;;;;5007647;28;19968;-79
2022/01/24 02:35:44;;;;;;;;;;;3.40;1.00;;;;;;5016492;28;19918;-79
2022/01/24 02:45:59;;;;;;;;;;;3.40;99.90;;;;;;5016378;28;19956;-79
2022/01/24 02:48:58;;;;;;;;;;;3.30;99.90;;;;;;5015514;28;20384;-79
2022/01/24 02:54:15;;;;;;;;;;;3.30;99.90;;;;;;5015377;28;19983;-79
2022/01/24 02:56:41;;;;;;;;;;;3.30;99.90;;;;;;5014749;28;19924;-78
2022/01/24 02:59:06;;;;;;;;;;;3.30;99.90;;;;;;5015670;28;19968;-78
2022/01/24 03:01:32;;;;;;;;;;;3.20;96.60;;;;;;5006838;28;20025;-79
2022/01/24 03:03:57;;;;;;;;;;;3.20;99.90;;;;;;5014925;28;19914;-79
2022/01/24 03:06:23;;;;;;;;;;;3.20;99.90;;;;;;5013519;28;19921;-79
2022/01/24 03:08:48;;;;;;;;;;;3.20;38.20;;;;;;5013425;28;19982;-79
2022/01/24 03:11:15;;;;;;;;;;;3.20;1.00;;;;;;5007330;28;19913;-79
2022/01/24 03:13:40;;;;;;;;;;;3.10;1.00;;;;;;5015284;28;19925;-78
2022/01/24 03:16:07;;;;;;;;;;;3.10;21.40;;;;;;5022878;28;19923;-79
2022/01/24 03:18:33;;;;;;;;;;;3.10;99.90;;;;;;5008181;28;19914;-79
2022/01/24 03:20:58;;;;;;;;;;;3.10;99.90;;;;;;5014086;28;20374;-79
2022/01/24 03:23:24;;;;;;;;;;;3.10;99.90;;;;;;5023248;28;20370;-79
2022/01/24 03:25:50;;;;;;;;;;;3.10;99.90;;;;;;5027708;28;20017;-79
2022/01/24 03:28:16;;;;;;;;;;;3.10;99.90;;;;;;5014479;28;19961;-80
2022/01/24 03:30:41;;;;;;;;;;;3.10;1.00;;;;;;5031185;28;20362;-79
2022/01/24 03:33:07;;;;;;;;;;;3.10;1.00;;;;;;5026694;28;19914;-80
2022/01/24 03:35:33;;;;;;;;;;;3.10;1.00;;;;;;5009539;28;19918;-79
2022/01/24 03:37:59;;;;;;;;;;;3.10;1.00;;;;;;5028268;28;20021;-79
2022/01/24 03:40:25;;;;;;;;;;;3.10;99.90;;;;;;5008031;28;20321;-79
2022/01/24 03:42:50;;;;;;;;;;;3.10;99.90;;;;;;5020564;28;20323;-79
2022/01/24 03:45:23;;;;;;;;;;;3.00;99.90;;;;;;5020407;28;19913;-79
2022/01/24 03:48:03;;;;;;;;;;;3.00;1.00;;;;;;5023341;28;19914;-79
2022/01/24 03:50:28;;;;;;;;;;;3.00;1.00;;;;;;5015427;28;19967;-78
2022/01/24 03:52:54;;;;;;;;;;;2.90;1.00;;;;;;5008697;28;19921;-79
2022/01/24 03:55:19;;;;;;;;;;;2.90;1.00;;;;;;5015127;28;19913;-79
2022/01/24 03:57:45;;;;;;;;;;;2.90;1.00;;;;;;5013508;28;19949;-79
2022/01/24 04:00:11;;;;;;;;;;;2.90;33.10;;;;;;5027645;28;19913;-79
2022/01/24 04:02:36;;;;;;;;;;;2.90;43.40;;;;;;5028602;28;19913;-78
2022/01/24 04:05:02;;;;;;;;;;;2.90;1.00;;;;;;5013090;28;19913;-79
2022/01/24 04:07:27;;;;;;;;;;;2.80;1.00;;;;;;5014875;28;20328;-79
2022/01/24 04:09:53;;;;;;;;;;;2.80;1.00;;;;;;5015341;28;20012;-79
2022/01/24 04:12:23;;;;;;;;;;;2.70;99.90;;;;;;5009613;28;19921;-79
2022/01/24 04:22:09;;;;;;;;;;;2.60;1.00;;;;;;5014498;28;19940;-79
2022/01/24 04:24:35;;;;;;;;;;;2.60;1.00;;;;;;5012821;28;19913;-79
2022/01/24 04:27:01;;;;;;;;;;;2.50;1.00;;;;;;5020736;28;19913;-79
2022/01/24 04:29:26;;;;;;;;;;;2.50;1.00;;;;;;5019006;28;19960;-79
2022/01/24 04:31:52;;;;;;;;;;;2.50;99.90;;;;;;5014676;28;19914;-79
2022/01/24 04:34:17;;;;;;;;;;;2.40;1.00;;;;;;5016532;28;20292;-79
2022/01/24 04:36:43;;;;;;;;;;;2.40;99.90;;;;;;5031082;28;19944;-79
2022/01/24 04:39:08;;;;;;;;;;;2.40;1.00;;;;;;5014264;28;20039;-79
2022/01/24 04:41:40;;;;;;;;;;;2.40;99.90;;;;;;5019467;28;19914;-79
2022/01/24 04:46:59;;;;;;;;;;;2.40;99.90;;;;;;5015314;28;19921;-78
2022/01/24 04:57:04;;;;;;;;;;;2.40;1.00;;;;;;5029027;28;20443;-78
2022/01/24 04:59:29;;;;;;;;;;;2.30;1.00;;;;;;5015650;28;19917;-78
2022/01/24 05:01:55;;;;;;;;;;;2.30;99.90;;;;;;5009636;28;19917;-78
2022/01/24 05:04:20;;;;;;;;;;;2.30;99.90;;;;;;5031475;28;19983;-78
2022/01/24 05:06:46;;;;;;;;;;;2.20;99.90;;;;;;5024606;28;19920;-78
2022/01/24 05:09:11;;;;;;;;;;;2.20;2.90;;;;;;5017421;28;20325;-79
2022/01/24 05:24:47;;;;;;;;;;;1.90;99.90;;;;;;5017760;28;19913;-78
2022/01/24 05:27:12;;;;;;;;;;;2.00;99.90;;;;;;5024604;28;19936;-78
2022/01/24 05:29:38;;;;;;;;;;;1.90;99.90;;;;;;5027999;28;19914;-78
2022/01/24 05:32:05;;;;;;;;;;;1.90;99.90;;;;;;5012982;28;19924;-78
2022/01/24 05:34:30;;;;;;;;;;;1.90;99.90;;;;;;5012384;28;19917;-78
2022/01/24 05:36:56;;;;;;;;;;;1.90;99.90;;;;;;5017896;28;19925;-78
2022/01/24 05:39:22;;;;;;;;;;;1.90;1.00;;;;;;5017171;28;19913;-78
2022/01/24 05:41:47;;;;;;;;;;;1.80;1.00;;;;;;5015716;28;19921;-78
2022/01/24 05:44:12;;;;;;;;;;;1.80;1.00;;;;;;5019156;28;19922;-78
2022/01/24 05:46:38;;;;;;;;;;;1.80;11.10;;;;;;5016582;28;20182;-78
2022/01/24 05:49:03;;;;;;;;;;;1.80;77.00;;;;;;5026699;28;19953;-78
2022/01/24 05:51:29;;;;;;;;;;;1.80;99.90;;;;;;5021025;28;19952;-79
2022/01/24 05:53:55;;;;;;;;;;;1.80;99.90;;;;;;5018407;28;19914;-79
2022/01/24 05:56:20;;;;;;;;;;;1.80;99.90;;;;;;5030777;28;20524;-78
2022/01/24 05:58:46;;;;;;;;;;;1.70;99.90;;;;;;5019791;28;19914;-78
2022/01/24 06:01:11;;;;;;;;;;;1.80;99.90;;;;;;5022073;28;20364;-78
2022/01/24 06:03:37;;;;;;;;;;;1.80;99.90;;;;;;5004015;28;20326;-78
2022/01/24 06:06:02;;;;;;;;;;;1.80;99.90;;;;;;5014079;28;20285;-78
2022/01/24 06:08:28;;;;;;;;;;;1.70;99.90;;;;;;5015559;28;19914;-78
2022/01/24 06:10:58;;;;;;;;;;;1.80;99.90;;;;;;5030907;28;20008;-78
2022/01/24 06:13:24;;;;;;;;;;;1.70;99.90;;;;;;5013970;28;19940;-78
2022/01/24 06:15:49;;;;;;;;;;;1.70;99.90;;;;;;5016428;28;20300;-78
2022/01/24 06:18:16;;;;;;;;;;;1.70;99.90;;;;;;5027504;28;20379;-78
2022/01/24 06:20:42;;;;;;;;;;;1.70;94.60;;;;;;5026612;28;19921;-78
2022/01/24 06:23:11;;;;;;;;;;;1.60;92.20;;;;;;5014918;28;19913;-78
2022/01/24 06:25:36;;;;;;;;;;;1.60;26.60;;;;;;5015349;28;19939;-79
2022/01/24 06:28:01;;;;;;;;;;;1.60;26.10;;;;;;5014220;28;19920;-78
2022/01/24 06:30:27;;;;;;;;;;;1.60;8.40;;;;;;5014686;28;20382;-79
2022/01/24 06:32:52;;;;;;;;;;;1.50;99.90;;;;;;5013556;28;20026;-79
2022/01/24 06:35:18;;;;;;;;;;;1.50;99.90;;;;;;5016004;28;20170;-79
2022/01/24 06:37:43;;;;;;;;;;;1.50;99.90;;;;;;5013908;28;20047;-79
2022/01/24 06:40:10;;;;;;;;;;;1.50;99.90;;;;;;5016391;28;20358;-79
2022/01/24 06:42:35;;;;;;;;;;;1.50;99.90;;;;;;5013853;28;19913;-78
2022/01/24 06:45:01;;;;;;;;;;;1.50;1.00;;;;;;5029981;28;19914;-79
2022/01/24 06:47:27;;;;;;;;;;;1.50;99.90;;;;;;5013306;28;19972;-80
2022/01/24 06:49:52;;;;;;;;;;;1.50;1.00;;;;;;5015413;28;19913;-78
2022/01/24 06:52:20;;;;;;;;;;;1.60;99.90;;;;;;5012384;28;20170;-78
2022/01/24 06:54:45;;;;;;;;;;;1.60;99.90;;;;;;5013690;28;19967;-79
2022/01/24 06:57:11;;;;;;;;;;;1.50;99.90;;;;;;5018166;28;19921;-79
2022/01/24 06:59:41;;;;;;;;;;;1.50;99.90;;;;;;5034455;28;19913;-79
2022/01/24 07:02:07;;;;;;;;;;;1.60;1.00;;;;;;5016685;28;19909;-78
2022/01/24 07:04:33;;;;;;;;;;;1.60;99.90;;;;;;5008595;28;19914;-79
2022/01/24 07:06:58;;;;;;;;;;;1.70;99.90;;;;;;5003077;28;19917;-79
2022/01/24 07:09:24;;;;;;;;;;;1.90;99.90;;;;;;5026146;28;19920;-79
2022/01/24 07:11:51;;;;;;;;;;;2.00;99.90;;;;;;5023598;28;19920;-78
2022/01/24 07:14:16;;;;;;;;;;;2.10;99.90;;;;;;5007758;28;19914;-78
2022/01/24 07:19:20;;;;;;;;;;;2.10;99.90;;;;;;5007838;28;20319;-78
2022/01/24 07:21:45;;;;;;;;;;;2.20;75.60;;;;;;5038871;28;19913;-78
2022/01/24 07:24:11;;;;;;;;;;;2.20;14.30;;;;;;5024246;28;20382;-79
2022/01/24 07:26:36;;;;;;;;;;;2.20;19.20;;;;;;5029257;28;19959;-79
2022/01/24 07:29:02;;;;;;;;;;;2.20;1.00;;;;;;5020074;28;19923;-79
2022/01/24 07:31:27;;;;;;;;;;;2.20;1.00;;;;;;5013559;28;20036;-78
2022/01/24 07:33:55;;;;;;;;;;;2.20;1.00;;;;;;5009903;28;19918;-78
2022/01/24 07:36:21;;;;;;;;;;;2.20;99.90;;;;;;5024333;28;19918;-79
2022/01/24 07:38:48;;;;;;;;;;;2.30;99.90;;;;;;5016348;28;20483;-79
2022/01/24 07:41:17;;;;;;;;;;;2.30;21.00;;;;;;5016211;28;20481;-79
2022/01/24 07:43:42;;;;;;;;;;;2.30;1.00;;;;;;5016042;28;19933;-78
2022/01/24 07:46:08;;;;;;;;;;;2.40;1.00;;;;;;5014944;28;19914;-79
2022/01/24 07:48:33;;;;;;;;;;;2.50;15.90;;;;;;5022927;28;19914;-80
2022/01/24 07:50:58;;;;;;;;;;;2.60;33.00;;;;;;5019541;28;20282;-79
2022/01/24 07:53:24;;;;;;;;;;;2.70;1.00;;;;;;5017166;28;19984;-79
2022/01/24 07:55:51;;;;;;;;;;;2.80;1.00;;;;;;5014865;28;19917;-82
2022/01/24 07:58:16;;;;;;;;;;;2.90;1.00;;;;;;5017197;28;19913;-80
2022/01/24 08:00:41;;;;;;;;;;;3.00;1.00;;;;;;5024875;28;19976;-80
2022/01/24 08:03:07;;;;;;;;;;;3.00;99.90;;;;;;5015058;28;19914;-80
2022/01/24 08:05:33;;;;;;;;;;;3.10;99.90;;;;;;5016435;28;19917;-80
2022/01/24 08:07:59;;;;;;;;;;;3.20;1.00;;;;;;5016535;28;19925;-80
2022/01/24 08:10:24;;;;;;;;;;;3.40;1.00;;;;;;5015748;28;19913;-80
2022/01/24 08:12:50;;;;;;;;;;;3.60;1.00;;;;;;5015510;28;19963;-81
2022/01/24 08:15:16;;;;;;;;;;;4.70;1.00;;;;;;5016402;28;19981;-80
2022/01/24 08:17:42;;;;;;;;;;;6.60;1.00;;;;;;5032060;28;20011;-81
2022/01/24 08:20:09;;;;;;;;;;;8.20;99.90;;;;;;5015830;28;19963;-80
2022/01/24 08:22:34;;;;;;;;;;;8.70;1.00;;;;;;5008872;28;19922;-80
2022/01/24 08:25:03;;;;;;;;;;;9.20;1.00;;;;;;5002079;28;19975;-80
2022/01/24 08:27:29;;;;;;;;;;;9.80;1.00;;;;;;5015752;28;20310;-80
2022/01/24 08:29:54;;;;;;;;;;;9.80;1.00;;;;;;5005089;28;20466;-80
2022/01/24 08:32:20;;;;;;;;;;;9.70;1.00;;;;;;5021363;28;20072;-80
2022/01/24 08:34:45;;;;;;;;;;;9.70;1.00;;;;;;5016568;28;19921;-80
2022/01/24 08:37:11;;;;;;;;;;;10.50;1.00;;;;;;5014387;28;20373;-80
2022/01/24 08:39:37;;;;;;;;;;;10.90;1.00;;;;;;5011362;28;20382;-80
2022/01/24 08:42:14;;;;;;;;;;;11.80;1.00;;;;;;5016648;28;19932;-80
2022/01/24 08:47:23;;;;;;;;;;;14.60;1.00;;;;;;5011910;28;19944;-80
2022/01/24 08:49:49;;;;;;;;;;;15.90;1.00;;;;;;5019957;28;19940;-81
2022/01/24 08:52:15;;;;;;;;;;;16.90;1.00;;;;;;5014614;28;19917;-80
2022/01/24 08:54:40;;;;;;;;;;;17.80;1.00;;;;;;5010434;28;20544;-81
2022/01/24 08:57:07;;;;;;;;;;;18.60;1.00;;;;;;5011268;28;19920;-81
2022/01/24 08:59:33;;;;;;;;;;;19.30;1.00;;;;;;5010615;28;20055;-82
2022/01/24 09:01:59;;;;;;;;;;;19.90;1.00;;;;;;5017273;28;20389;-79
2022/01/24 09:04:24;;;;;;;;;;;20.40;1.00;;;;;;5013477;28;19917;-80
2022/01/24 09:06:50;;;;;;;;;;;20.90;1.00;;;;;;5013328;28;19921;-78
2022/01/24 09:09:16;;;;;;;;;;;21.20;1.00;;;;;;5017479;28;19913;-79
2022/01/24 09:11:41;;;;;;;;;;;21.50;1.00;;;;;;5014450;28;19922;-78
2022/01/24 09:14:07;;;;;;;;;;;21.80;1.00;;;;;;5015513;28;20362;-78
2022/01/24 09:16:33;;;;;;;;;;;22.10;1.00;;;;;;5015672;28;19913;-79
2022/01/24 09:18:59;;;;;;;;;;;22.20;1.00;;;;;;5015046;28;20000;-78
2022/01/24 09:21:26;;;;;;;;;;;22.40;1.00;;;;;;5013750;28;19936;-78
2022/01/24 09:23:52;;;;;;;;;;;22.70;1.00;;;;;;5017643;28;20043;-79
2022/01/24 09:26:18;;;;;;;;;;;23.00;1.00;;;;;;5020469;28;19937;-79
2022/01/24 09:28:44;;;;;;;;;;;23.50;1.00;;;;;;5021205;28;19914;-79
2022/01/24 09:31:09;;;;;;;;;;;23.70;1.00;;;;;;5021770;28;20240;-79
2022/01/24 09:33:35;;;;;;;;;;;23.70;1.00;;;;;;5020134;28;19925;-79
2022/01/24 09:36:01;;;;;;;;;;;23.30;1.00;;;;;;5021053;28;19964;-79
2022/01/24 09:38:32;;;;;;;;;;;21.90;1.00;;;;;;5025568;28;19921;-79
2022/01/24 09:40:59;;;;;;;;;;;20.70;1.00;;;;;;5022791;28;19931;-79
2022/01/24 09:43:24;;;;;;;;;;;19.50;99.90;;;;;;5021563;28;19917;-79
2022/01/24 09:45:49;;;;;;;;;;;18.40;99.90;;;;;;5021301;28;20297;-79
2022/01/24 09:48:16;;;;;;;;;;;17.20;99.90;;;;;;5022032;28;19931;-78
2022/01/24 09:50:42;;;;;;;;;;;16.10;99.90;;;;;;5021718;28;19913;-78
2022/01/24 09:53:08;;;;;;;;;;;15.20;99.90;;;;;;5020908;28;20282;-78
2022/01/24 09:55:34;;;;;;;;;;;14.50;99.90;;;;;;5019789;28;19913;-78
2022/01/24 09:57:59;;;;;;;;;;;13.80;99.90;;;;;;5018921;28;19971;-78
2022/01/24 10:00:26;;;;;;;;;;;13.20;99.90;;;;;;5013461;28;19914;-78
2022/01/24 10:02:52;;;;;;;;;;;12.70;99.90;;;;;;5017985;28;19964;-78
2022/01/24 10:05:17;;;;;;;;;;;12.10;99.90;;;;;;5019023;28;19917;-78
2022/01/24 10:08:09;;;;;;;;;;;11.60;99.90;;;;;;5018465;28;20388;-77
2022/01/24 10:10:48;;;;;;;;;;;11.20;99.90;;;;;;5017647;28;19914;-78
2022/01/24 10:19:06;;;;;;;;;;;10.30;99.90;;;;;;5021680;28;19913;-78
2022/01/24 10:21:51;;;;;;;;;;;10.20;99.90;;;;;;5012713;28;19985;-78
2022/01/24 10:24:26;;;;;;;;;;;10.00;99.90;;;;;;5018165;28;19913;-78
2022/01/24 10:27:07;;;;;;;;;;;9.80;99.90;;;;;;5033601;28;19936;-78
2022/01/24 10:29:32;;;;;;;;;;;9.50;99.90;;;;;;5018475;28;19914;-78
2022/01/24 10:31:57;;;;;;;;;;;9.40;99.90;;;;;;4999522;28;19921;-78
2022/01/24 10:34:33;;;;;;;;;;;9.20;99.90;;;;;;5020131;28;20404;-78
2022/01/24 10:37:00;;;;;;;;;;;8.90;99.90;;;;;;5005920;28;20377;-79
2022/01/24 10:44:56;;;;;;;;;;;8.80;99.90;;;;;;5016333;28;19920;-78
2022/01/24 10:47:23;;;;;;;;;;;8.60;99.90;;;;;;5005182;28;19968;-78
2022/01/24 10:49:50;;;;;;;;;;;8.60;99.90;;;;;;5011456;28;20365;-78
2022/01/24 10:52:19;;;;;;;;;;;8.30;99.90;;;;;;5003496;28;19910;-79
2022/01/24 10:54:45;;;;;;;;;;;8.10;99.90;;;;;;5019653;28;19947;-79
2022/01/24 10:57:21;;;;;;;;;;;8.30;99.90;;;;;;5025084;28;19973;-79
2022/01/24 10:59:47;;;;;;;;;;;8.40;99.90;;;;;;5023131;28;20001;-79
2022/01/24 11:02:14;;;;;;;;;;;8.20;99.90;;;;;;5013531;28;19910;-79
2022/01/24 11:04:40;;;;;;;;;;;8.00;99.90;;;;;;5016661;28;19972;-79
2022/01/24 11:07:06;;;;;;;;;;;8.10;99.90;;;;;;5022354;28;19948;-78
2022/01/24 11:09:32;;;;;;;;;;;8.20;99.90;;;;;;5021505;28;19913;-79
2022/01/24 11:12:11;;;;;;;;;;;8.30;99.90;;;;;;5021304;28;19917;-78
2022/01/24 11:14:40;;;;;;;;;;;8.40;99.90;;;;;;5020915;28;19910;-78
2022/01/24 11:17:07;;;;;;;;;;;8.50;99.90;;;;;;5036006;28;19913;-79
2022/01/24 11:19:46;;;;;;;;;;;8.60;99.90;;;;;;5019678;28;19909;-78
2022/01/24 11:22:25;;;;;;;;;;;8.70;99.90;;;;;;5020295;28;19913;-79
2022/01/24 11:24:55;;;;;;;;;;;9.10;99.90;;;;;;5021461;28;19957;-80
2022/01/24 11:27:21;;;;;;;;;;;10.50;1.00;;;;;;5023520;28;19917;-80
2022/01/24 11:29:49;;;;;;;;;;;12.20;99.90;;;;;;5024015;28;19909;-79
2022/01/24 11:32:20;;;;;;;;;;;13.20;99.90;;;;;;5023782;28;19940;-79
2022/01/24 11:34:50;;;;;;;;;;;14.70;99.90;;;;;;5023441;28;19917;-79
2022/01/24 11:37:34;;;;;;;;;;;15.20;99.90;;;;;;5022496;28;19920;-79
2022/01/24 11:40:01;;;;;;;;;;;15.50;99.90;;;;;;5023342;28;19913;-79
2022/01/24 11:42:27;;;;;;;;;;;15.60;99.90;;;;;;5022564;28;20004;-79
2022/01/24 11:44:52;;;;;;;;;;;16.10;99.90;;;;;;5021194;28;20036;-80
2022/01/24 11:47:20;;;;;;;;;;;16.90;99.90;;;;;;5017878;28;20310;-80
2022/01/24 11:49:46;;;;;;;;;;;16.70;99.90;;;;;;5020016;28;19916;-79
2022/01/24 11:52:14;;;;;;;;;;;16.00;99.90;;;;;;5031073;28;19910;-79
2022/01/24 11:57:37;;;;;;;;;;;16.20;99.90;;;;;;5023318;28;19917;-79
2022/01/24 12:00:05;;;;;;;;;;;16.00;99.90;;;;;;5020640;28;20016;-80
2022/01/24 12:02:41;;;;;;;;;;;16.50;99.90;;;;;;5005205;28;19910;-80
2022/01/24 12:05:12;;;;;;;;;;;17.20;99.90;;;;;;5025568;28;19909;-79
2022/01/24 12:07:50;;;;;;;;;;;17.30;99.90;;;;;;5028151;28;19921;-79
2022/01/24 12:10:38;;;;;;;;;;;17.80;99.90;;;;;;5008799;28;19914;-79
2022/01/24 12:13:09;;;;;;;;;;;17.40;99.90;;;;;;5010319;28;19949;-79
2022/01/24 12:15:37;;;;;;;;;;;17.70;99.90;;;;;;5026453;28;19992;-79
2022/01/24 12:18:04;;;;;;;;;;;17.30;99.90;;;;;;5026732;28;19913;-80
2022/01/24 12:20:29;;;;;;;;;;;17.30;99.90;;;;;;5026184;28;19910;-80
2022/01/24 12:22:55;;;;;;;;;;;17.40;99.90;;;;;;5025882;28;19968;-79
2022/01/24 12:25:40;;;;;;;;;;;16.50;99.90;;;;;;5026969;28;20302;-79
2022/01/24 12:28:21;;;;;;;;;;;16.60;99.90;;;;;;5021945;28;19917;-79
2022/01/24 12:30:59;;;;;;;;;;;16.10;99.90;;;;;;5024235;28;20021;-79
2022/01/24 12:33:34;;;;;;;;;;;16.10;99.90;;;;;;5015154;28;19914;-79
2022/01/24 12:36:07;;;;;;;;;;;15.90;99.90;;;;;;5033828;28;19921;-79
2022/01/24 12:38:39;;;;;;;;;;;16.50;99.90;;;;;;5029133;28;19916;-80
2022/01/24 12:41:13;;;;;;;;;;;17.40;99.90;;;;;;5031293;28;19916;-81
2022/01/24 12:43:53;;;;;;;;;;;16.50;99.90;;;;;;5019191;28;19917;-81
2022/01/24 12:46:26;;;;;;;;;;;16.30;99.90;;;;;;5022960;28;20039;-81
2022/01/24 12:48:56;;;;;;;;;;;16.20;99.90;;;;;;5034714;28;19920;-80
2022/01/24 12:51:25;;;;;;;;;;;16.70;99.90;;;;;;5033379;28;19914;-80
2022/01/24 12:53:51;;;;;;;;;;;17.00;99.90;;;;;;5030574;28;19940;-80
2022/01/24 12:56:18;;;;;;;;;;;16.70;99.90;;;;;;5030661;28;19937;-80
2022/01/24 12:58:48;;;;;;;;;;;16.10;99.90;;;;;;5030947;28;19909;-80
2022/01/24 13:01:27;;;;;;;;;;;15.30;99.90;;;;;;5024454;28;19914;-80
2022/01/24 13:03:57;;;;;;;;;;;15.20;99.90;;;;;;5032582;28;19913;-80
2022/01/24 13:06:23;;;;;;;;;;;15.10;99.90;;;;;;5030617;28;19917;-79
2022/01/24 13:08:53;;;;;;;;;;;15.60;99.90;;;;;;5013830;28;19910;-79
2022/01/24 13:11:18;;;;;;;;;;;15.60;99.90;;;;;;5019118;28;19917;-79
2022/01/24 13:14:06;;;;;;;;;;;15.90;99.90;;;;;;5030890;28;19909;-79
2022/01/24 13:23:07;;;;;;;;;;;16.80;99.90;;;;;;5031721;28;19997;-79
2022/01/24 13:25:23;;;;;;;;;;;16.10;99.90;;;;;;5033863;28;19913;-79
2022/01/24 13:27:53;;;;;;;;;;;16.50;99.90;;;;;;5031761;28;19940;-79
2022/01/24 13:30:26;;;;;;;;;;;16.70;99.90;;;;;;5031804;28;19960;-79
2022/01/24 13:32:56;;;;;;;;;;;16.30;99.90;;;;;;5029767;28;19949;-79
2022/01/24 13:35:26;;;;;;;;;;;16.40;99.90;;;;;;5029650;28;19918;-79
2022/01/24 13:37:54;;;;;;;;;;;16.10;99.90;;;;;;5030205;28;19914;-79
2022/01/24 13:40:29;;;;;;;;;;;15.80;99.90;;;;;;5028907;28;19917;-80
2022/01/24 13:42:55;;;;;;;;;;;15.60;99.90;;;;;;5027383;28;19917;-80
2022/01/24 13:45:20;;;;;;;;;;;15.30;99.90;;;;;;5028519;28;19909;-79
2022/01/24 13:47:54;;;;;;;;;;;14.80;99.90;;;;;;5027991;28;19914;-79
2022/01/24 13:50:20;;;;;;;;;;;14.50;99.90;;;;;;5025621;28;20648;-80
2022/01/24 13:52:49;;;;;;;;;;;14.10;99.90;;;;;;5025307;28;19922;-79
2022/01/24 13:55:16;;;;;;;;;;;13.60;99.90;;;;;;5026560;28;19973;-78
2022/01/24 13:57:48;;;;;;;;;;;13.10;99.90;;;;;;5026521;28;19997;-79
2022/01/24 14:00:16;;;;;;;;;;;12.70;99.90;;;;;;5026557;28;19916;-79
2022/01/24 14:02:42;;;;;;;;;;;11.60;99.90;;;;;;5025664;28;20374;-80
2022/01/24 14:05:08;;;;;;;;;;;10.90;99.90;;;;;;5024106;28;19909;-79
2022/01/24 14:07:37;;;;;;;;;;;10.60;99.90;;;;;;5022936;28;19917;-79
2022/01/24 14:10:04;;;;;;;;;;;10.60;99.90;;;;;;5024903;28;20021;-79
2022/01/24 14:12:37;;;;;;;;;;;10.10;99.90;;;;;;5023306;28;19953;-79
2022/01/24 14:15:09;;;;;;;;;;;9.90;99.90;;;;;;5022646;28;19909;-79
2022/01/24 14:18:06;;;;;;;;;;;9.80;99.90;;;;;;5020223;28;19913;-78
2022/01/24 14:20:32;;;;;;;;;;;10.00;99.90;;;;;;5021808;28;19913;-78
2022/01/24 14:22:58;;;;;;;;;;;10.30;99.90;;;;;;5026977;28;19913;-79
2022/01/24 14:25:29;;;;;;;;;;;10.70;99.90;;;;;;5031722;28;19916;-79
2022/01/24 14:27:59;;;;;;;;;;;10.70;99.90;;;;;;5032788;28;19905;-79
2022/01/24 14:30:26;;;;;;;;;;;11.10;99.90;;;;;;5033770;28;20285;-79
2022/01/24 14:33:04;;;;;;;;;;;11.00;99.90;;;;;;5024358;28;20066;-79
2022/01/24 14:35:32;;;;;;;;;;;11.00;99.90;;;;;;5025808;28;19917;-79
2022/01/24 14:37:59;;;;;;;;;;;11.00;99.90;;;;;;5025999;28;19953;-79
2022/01/24 14:40:48;;;;;;;;;;;11.00;99.90;;;;;;5026437;28;19910;-79
2022/01/24 14:46:01;;;;;;;;;;;11.00;99.90;;;;;;5027001;28;19932;-79
2022/01/24 14:48:26;;;;;;;;;;;11.10;99.90;;;;;;5023983;28;19913;-79
2022/01/24 14:50:52;;;;;;;;;;;11.10;99.90;;;;;;5025459;28;20120;-79
2022/01/24 14:53:17;;;;;;;;;;;10.80;99.90;;;;;;5021448;28;19921;-79
2022/01/24 14:55:43;;;;;;;;;;;10.80;99.90;;;;;;5022471;28;19913;-79
2022/01/24 14:58:09;;;;;;;;;;;10.80;99.90;;;;;;5026424;28;19916;-79
2022/01/24 15:00:34;;;;;;;;;;;10.80;99.90;;;;;;5026080;28;19932;-79
2022/01/24 15:03:00;;;;;;;;;;;10.80;99.90;;;;;;5026581;28;19910;-79
2022/01/24 15:05:25;;;;;;;;;;;10.80;99.90;;;;;;5023848;28;19956;-79
2022/01/24 15:07:51;;;;;;;;;;;10.90;99.90;;;;;;5021016;28;19917;-79
2022/01/24 15:10:17;;;;;;;;;;;10.90;99.90;;;;;;5024767;28;19913;-79
2022/01/24 15:12:49;;;;;;;;;;;10.70;99.90;;;;;;5025336;28;19968;-79
2022/01/24 15:15:17;;;;;;;;;;;10.70;99.90;;;;;;5024299;28;19989;-78
2022/01/24 15:25:52;;;;;;;;;;;9.50;99.90;;;;;;5021609;28;19960;-79
2022/01/24 15:28:18;;;;;;;;;;;9.30;99.90;;;;;;5024359;28;19910;-79
2022/01/24 15:30:43;;;;;;;;;;;9.20;99.90;;;;;;5024959;28;19921;-79
2022/01/24 15:33:09;;;;;;;;;;;8.90;99.90;;;;;;5024742;28;19919;-79
2022/01/24 15:35:34;;;;;;;;;;;8.70;99.90;;;;;;5018290;28;20302;-79
2022/01/24 15:38:04;;;;;;;;;;;8.50;99.90;;;;;;5019154;28;19921;-79
2022/01/24 15:40:30;;;;;;;;;;;8.40;99.90;;;;;;5023436;28;19914;-79
2022/01/24 15:43:07;;;;;;;;;;;8.30;99.90;;;;;;5022466;28;19952;-77
2022/01/24 15:47:58;;;;;;;;;;;8.10;99.90;;;;;;5020774;28;20436;-78
2022/01/24 15:50:24;;;;;;;;;;;7.80;99.90;;;;;;5021141;28;19937;-78
2022/01/24 15:52:51;;;;;;;;;;;7.70;99.90;;;;;;5020175;28;19953;-77
2022/01/24 15:55:22;;;;;;;;;;;7.60;99.90;;;;;;5020700;28;19921;-78
2022/01/24 15:57:47;;;;;;;;;;;7.50;99.90;;;;;;5019654;28;19967;-78
2022/01/24 16:00:15;;;;;;;;;;;7.40;1.00;;;;;;5019955;28;19917;-78
2022/01/24 16:02:42;;;;;;;;;;;7.20;1.00;;;;;;4999142;28;19952;-78
2022/01/24 16:05:12;;;;;;;;;;;7.10;1.00;;;;;;5018521;28;19917;-78
2022/01/24 16:07:39;;;;;;;;;;;7.00;1.00;;;;;;5008312;28;19918;-79
2022/01/24 16:10:10;;;;;;;;;;;6.90;1.00;;;;;;5010787;28;19917;-78
2022/01/24 16:12:37;;;;;;;;;;;6.70;1.00;;;;;;5010192;28;19914;-79
2022/01/24 16:15:03;;;;;;;;;;;6.70;1.00;;;;;;5011832;28;19913;-79
2022/01/24 16:17:29;;;;;;;;;;;6.60;1.00;;;;;;5008260;28;20344;-78
2022/01/24 16:19:56;;;;;;;;;;;6.50;1.00;;;;;;5009455;28;20345;-78
2022/01/24 16:25:22;;;;;;;;;;;6.40;1.00;;;;;;5025610;28;19931;-78
2022/01/24 16:27:48;;;;;;;;;;;6.40;1.00;;;;;;5012112;28;20368;-78
2022/01/24 16:30:14;;;;;;;;;;;6.20;1.00;;;;;;5013965;28;19922;-78
2022/01/24 16:32:39;;;;;;;;;;;6.20;1.00;;;;;;5028343;28;19920;-78
2022/01/24 16:35:05;;;;;;;;;;;6.10;1.00;;;;;;5015167;28;19949;-78
2022/01/24 16:37:35;;;;;;;;;;;6.00;1.00;;;;;;5024997;28;20409;-78
2022/01/24 16:40:08;;;;;;;;;;;5.90;1.00;;;;;;5002856;28;19930;-78
2022/01/24 16:42:39;;;;;;;;;;;5.90;1.00;;;;;;5020435;28;19921;-78
2022/01/24 16:47:02;;;;;;;;;;;5.90;1.00;;;;;;5004991;28;20622;-78
2022/01/24 16:47:59;;;;;;;;;;;5.70;1.00;;;;;;5005441;28;19933;-78
2022/01/24 16:50:24;;;;;;;;;;;5.60;1.00;;;;;;5019349;28;20004;-78